Time;durP1;ratioP1;P1;durP2;ratioP2;P2;SDS_P1;SDS_P2;PMS_P1;PMS_P2;Temp;Humidity;BMP_temperature;BMP_pressure;BME280_temperature;BME280_humidity;BME280_pressure;Samples;Min_cycle;Max_cycle;Signal;HPM_P1;HPM_P2
2022/07/20 00:02:14;;;;;;;8.55;4.60;;;24.00;77.60;;;;;;5026334;28;20060;-51
2022/07/20 00:04:40;;;;;;;6.05;4.50;;;24.00;77.40;;;;;;5025668;28;20103;-51
2022/07/20 00:07:09;;;;;;;6.30;4.10;;;23.90;77.20;;;;;;5026138;28;20060;-52
2022/07/20 00:12:20;;;;;;;5.25;3.92;;;23.90;77.80;;;;;;5019043;28;20053;-53
2022/07/20 00:14:46;;;;;;;7.25;4.30;;;23.90;78.20;;;;;;5019861;28;20046;-51
2022/07/20 00:17:13;;;;;;;9.38;5.55;;;23.80;78.00;;;;;;5020817;28;20381;-52
2022/07/20 00:19:39;;;;;;;5.65;4.43;;;23.80;77.70;;;;;;5031362;28;20060;-51
2022/07/20 00:22:05;;;;;;;7.07;4.75;;;23.80;77.40;;;;;;5025676;28;20053;-53
2022/07/20 00:24:31;;;;;;;9.75;4.63;;;23.80;77.30;;;;;;5026336;28;20103;-50
2022/07/20 00:26:57;;;;;;;7.03;4.40;;;23.70;77.20;;;;;;5014327;28;20137;-54
2022/07/20 00:29:23;;;;;;;6.53;4.40;;;23.70;77.30;;;;;;5046008;28;20200;-51
2022/07/20 00:31:49;;;;;;;5.65;4.20;;;23.70;77.10;;;;;;5035422;28;20088;-50
2022/07/20 00:34:15;;;;;;;5.05;3.88;;;23.70;76.90;;;;;;5028811;28;20060;-50
2022/07/20 00:36:42;;;;;;;9.15;4.40;;;23.70;77.00;;;;;;5025966;28;20060;-53
2022/07/20 00:39:09;;;;;;;6.18;4.97;;;23.70;77.00;;;;;;5025800;28;20049;-54
2022/07/20 00:41:35;;;;;;;6.10;4.90;;;23.70;77.10;;;;;;5026269;28;20057;-56
2022/07/20 00:44:05;;;;;;;9.10;4.57;;;23.60;77.00;;;;;;5026000;28;20049;-54
2022/07/20 00:46:39;;;;;;;9.45;4.75;;;23.60;77.10;;;;;;5021792;28;20128;-49
2022/07/20 00:49:07;;;;;;;8.95;4.60;;;23.60;77.20;;;;;;5021754;28;20061;-53
2022/07/20 00:51:35;;;;;;;8.02;4.75;;;23.50;77.30;;;;;;5026558;28;20100;-51
2022/07/20 00:54:04;;;;;;;6.00;4.78;;;23.50;77.10;;;;;;5016487;28;20053;-54
2022/07/20 00:56:30;;;;;;;7.18;4.80;;;23.50;77.30;;;;;;5022935;28;20089;-53
2022/07/20 00:58:56;;;;;;;7.28;4.32;;;23.50;77.30;;;;;;5021828;28;20065;-52
2022/07/20 01:01:22;;;;;;;8.77;4.40;;;23.40;77.30;;;;;;5045732;28;20114;-54
2022/07/20 01:03:48;;;;;;;6.43;3.92;;;23.40;77.50;;;;;;5000247;28;20050;-49
2022/07/20 01:06:14;;;;;;;8.18;4.90;;;23.30;78.00;;;;;;5025402;28;20089;-51
2022/07/20 01:08:40;;;;;;;6.40;4.45;;;23.30;77.90;;;;;;5030274;28;20168;-51
2022/07/20 01:11:06;;;;;;;7.35;5.00;;;23.20;77.80;;;;;;5002525;28;20172;-52
2022/07/20 01:13:33;;;;;;;6.47;4.60;;;23.10;78.20;;;;;;5024246;28;20129;-50
2022/07/20 01:15:59;;;;;;;7.90;5.03;;;23.10;78.10;;;;;;5044974;28;20094;-52
2022/07/20 01:18:26;;;;;;;7.78;4.88;;;23.10;78.00;;;;;;5044219;28;20135;-53
2022/07/20 01:20:57;;;;;;;8.88;4.90;;;23.00;77.90;;;;;;5034729;28;20518;-53
2022/07/20 01:23:24;;;;;;;7.68;4.53;;;23.00;77.90;;;;;;5009491;28;20515;-48
2022/07/20 01:25:51;;;;;;;5.88;4.57;;;23.00;78.10;;;;;;5045205;28;20148;-51
2022/07/20 01:28:16;;;;;;;6.85;4.50;;;23.00;77.90;;;;;;5045049;28;20063;-50
2022/07/20 01:30:42;;;;;;;6.57;5.32;;;22.90;78.00;;;;;;5034961;28;20045;-51
2022/07/20 01:33:09;;;;;;;7.95;4.57;;;22.90;78.00;;;;;;5026032;28;20154;-51
2022/07/20 01:35:40;;;;;;;6.45;5.07;;;22.90;78.10;;;;;;5045301;28;20049;-49
2022/07/20 01:38:06;;;;;;;9.82;4.90;;;22.90;78.30;;;;;;5044529;28;20056;-52
2022/07/20 01:40:32;;;;;;;8.35;5.03;;;22.80;78.50;;;;;;5032580;28;20045;-52
2022/07/20 01:42:59;;;;;;;7.55;4.93;;;22.80;78.50;;;;;;5024929;28;20504;-53
2022/07/20 01:45:30;;;;;;;7.95;5.13;;;22.70;78.50;;;;;;5014978;28;20629;-53
2022/07/20 01:47:56;;;;;;;8.95;4.85;;;22.70;78.50;;;;;;5029259;28;20492;-50
2022/07/20 01:50:23;;;;;;;7.72;4.90;;;22.60;78.30;;;;;;5020338;28;20048;-51
2022/07/20 01:52:49;;;;;;;8.60;4.85;;;22.60;78.40;;;;;;5044826;28;20057;-52
2022/07/20 01:55:15;;;;;;;4.75;4.30;;;22.60;78.40;;;;;;5043959;28;20045;-52
2022/07/20 01:57:41;;;;;;;6.63;5.30;;;22.60;78.50;;;;;;5029548;28;20061;-48
2022/07/20 02:00:12;;;;;;;8.13;5.20;;;22.60;78.70;;;;;;4994635;28;20073;-51
2022/07/20 02:02:39;;;;;;;7.78;5.00;;;22.50;78.60;;;;;;5005023;28;20054;-49
2022/07/20 02:05:06;;;;;;;7.47;5.65;;;22.50;78.70;;;;;;5001271;28;20128;-52
2022/07/20 02:07:32;;;;;;;6.07;5.28;;;22.40;78.60;;;;;;5000174;28;20058;-52
2022/07/20 02:09:58;;;;;;;7.38;4.60;;;22.40;78.80;;;;;;5013282;28;20057;-52
2022/07/20 02:12:24;;;;;;;9.65;5.05;;;22.40;79.10;;;;;;5022633;28;20415;-51
2022/07/20 02:14:50;;;;;;;6.20;4.88;;;22.30;79.10;;;;;;5024575;28;20091;-52
2022/07/20 02:17:16;;;;;;;6.45;5.18;;;22.40;79.20;;;;;;5022552;28;20053;-51
2022/07/20 02:19:42;;;;;;;6.78;4.95;;;22.30;79.40;;;;;;5024418;28;20057;-51
2022/07/20 02:22:09;;;;;;;6.22;4.80;;;22.30;79.20;;;;;;5024174;28;20059;-49
2022/07/20 02:24:35;;;;;;;10.40;4.97;;;22.20;79.50;;;;;;5024573;28;20451;-54
2022/07/20 02:27:01;;;;;;;5.72;4.60;;;22.20;80.20;;;;;;5024541;28;20056;-54
2022/07/20 02:29:27;;;;;;;7.95;5.28;;;22.10;80.50;;;;;;5024508;28;20045;-51
2022/07/20 02:31:56;;;;;;;6.05;4.55;;;22.10;80.80;;;;;;5012635;28;20049;-51
2022/07/20 02:34:22;;;;;;;8.98;5.30;;;22.00;80.60;;;;;;5021413;28;20092;-50
2022/07/20 02:36:48;;;;;;;8.90;4.57;;;22.00;80.60;;;;;;5005331;28;20057;-52
2022/07/20 02:39:14;;;;;;;10.35;5.05;;;21.90;80.80;;;;;;4999817;28;20077;-53
2022/07/20 02:41:40;;;;;;;6.75;4.95;;;21.90;81.30;;;;;;5003127;28;20157;-49
2022/07/20 02:44:12;;;;;;;6.95;5.03;;;21.80;81.10;;;;;;5016825;28;20128;-51
2022/07/20 02:46:39;;;;;;;9.10;5.28;;;21.80;81.20;;;;;;5028155;28;20049;-51
2022/07/20 02:49:06;;;;;;;10.93;5.03;;;21.70;81.20;;;;;;5009273;28;20066;-49
2022/07/20 02:51:33;;;;;;;6.80;4.78;;;21.70;81.70;;;;;;5027964;28;20045;-52
2022/07/20 02:53:59;;;;;;;6.22;4.15;;;21.70;81.30;;;;;;5010065;28;20119;-51
2022/07/20 02:56:26;;;;;;;8.27;4.80;;;21.70;80.90;;;;;;5003936;28;20054;-49
2022/07/20 02:58:51;;;;;;;6.90;4.70;;;21.70;81.00;;;;;;4991795;28;20090;-53
2022/07/20 03:01:17;;;;;;;8.73;4.97;;;21.70;81.20;;;;;;5007457;28;20642;-51
2022/07/20 03:03:43;;;;;;;9.00;4.70;;;21.60;81.30;;;;;;5007144;28;20047;-50
2022/07/20 03:06:10;;;;;;;6.30;4.88;;;21.60;81.10;;;;;;5006530;28;20053;-51
2022/07/20 03:08:36;;;;;;;9.20;4.50;;;21.60;81.10;;;;;;5023755;28;20563;-52
2022/07/20 03:11:01;;;;;;;6.53;4.80;;;21.60;81.40;;;;;;5007250;28;20060;-49
2022/07/20 03:13:28;;;;;;;9.60;4.95;;;21.60;81.80;;;;;;5002625;28;20085;-50
2022/07/20 03:15:58;;;;;;;7.85;5.57;;;21.60;82.30;;;;;;5016857;28;20053;-49
2022/07/20 03:18:24;;;;;;;9.77;4.90;;;21.50;82.90;;;;;;5027762;28;20065;-52
2022/07/20 03:20:50;;;;;;;6.82;5.70;;;21.40;83.00;;;;;;5027581;28;20045;-50
2022/07/20 03:23:16;;;;;;;7.25;5.15;;;21.40;82.70;;;;;;5018598;28;20457;-50
2022/07/20 03:25:42;;;;;;;7.95;4.35;;;21.30;82.90;;;;;;5007525;28;20107;-51
2022/07/20 03:28:09;;;;;;;6.25;5.05;;;21.30;83.30;;;;;;5003066;28;20077;-52
2022/07/20 03:30:35;;;;;;;7.25;4.70;;;21.20;83.30;;;;;;5003219;28;20037;-54
2022/07/20 03:33:01;;;;;;;8.35;5.43;;;21.20;83.70;;;;;;5019506;28;20049;-50
2022/07/20 03:35:27;;;;;;;10.95;5.28;;;21.20;83.90;;;;;;5011804;28;20085;-52
2022/07/20 03:37:54;;;;;;;6.97;5.28;;;21.10;83.50;;;;;;4994165;28;20092;-53
2022/07/20 03:40:20;;;;;;;9.38;5.15;;;21.10;84.00;;;;;;5003701;28;20064;-50
2022/07/20 03:42:46;;;;;;;6.45;5.43;;;21.10;84.00;;;;;;4994891;28;20092;-51
2022/07/20 03:45:12;;;;;;;6.65;5.20;;;21.10;83.90;;;;;;4994326;28;20924;-50
2022/07/20 03:47:38;;;;;;;6.22;5.60;;;21.10;83.80;;;;;;5020835;28;20065;-51
2022/07/20 03:50:05;;;;;;;9.18;5.45;;;21.10;83.30;;;;;;5011339;28;20050;-49
2022/07/20 03:52:31;;;;;;;5.88;4.85;;;21.20;82.70;;;;;;5004616;28;20157;-52
2022/07/20 03:54:57;;;;;;;13.23;5.30;;;21.20;83.30;;;;;;5002386;28;20480;-54
2022/07/20 03:57:23;;;;;;;6.07;4.60;;;21.20;83.80;;;;;;5008408;28;20058;-48
2022/07/20 03:59:49;;;;;;;9.65;4.68;;;21.20;83.80;;;;;;5013427;28;20056;-48
2022/07/20 04:02:16;;;;;;;8.80;5.28;;;21.20;84.00;;;;;;5006591;28;20053;-52
2022/07/20 04:04:42;;;;;;;11.48;5.30;;;21.20;84.10;;;;;;5009753;28;20059;-54
2022/07/20 04:07:08;;;;;;;10.15;5.57;;;21.20;84.20;;;;;;5006842;28;20065;-51
2022/07/20 04:09:49;;;;;;;5.85;4.63;;;21.30;84.50;;;;;;5038563;28;20045;-53
2022/07/20 04:12:25;;;;;;;6.63;4.82;;;21.30;84.10;;;;;;5046928;28;20041;-49
2022/07/20 04:14:52;;;;;;;9.63;6.10;;;21.40;84.00;;;;;;5026052;28;20052;-49
2022/07/20 04:17:19;;;;;;;10.35;5.47;;;21.50;83.50;;;;;;5026466;28;20061;-50
2022/07/20 04:19:46;;;;;;;9.23;5.63;;;21.60;83.40;;;;;;5026504;28;20590;-54
2022/07/20 04:22:13;;;;;;;7.03;4.85;;;21.60;83.50;;;;;;5031616;28;20049;-53
2022/07/20 04:24:39;;;;;;;9.13;5.78;;;21.60;83.90;;;;;;5046437;28;20064;-53
2022/07/20 04:27:05;;;;;;;11.52;5.63;;;21.80;83.70;;;;;;5028127;28;20077;-50
2022/07/20 04:29:32;;;;;;;7.40;4.95;;;22.50;84.50;;;;;;5008214;28;20148;-48
2022/07/20 04:31:58;;;;;;;7.80;4.88;;;23.50;83.40;;;;;;5005074;28;20053;-53
2022/07/20 04:34:24;;;;;;;15.23;5.30;;;24.50;82.20;;;;;;5013711;28;20045;-51
2022/07/20 04:36:50;;;;;;;34.33;6.75;;;25.50;80.70;;;;;;5025726;28;20619;-49
2022/07/20 04:39:17;;;;;;;19.95;5.50;;;26.30;79.70;;;;;;5024345;28;20061;-52
2022/07/20 04:41:42;;;;;;;9.98;5.85;;;27.00;79.00;;;;;;5006190;28;20050;-53
2022/07/20 04:44:09;;;;;;;9.40;5.15;;;27.70;77.50;;;;;;5005802;28;20056;-51
2022/07/20 04:46:35;;;;;;;7.40;5.30;;;28.20;76.60;;;;;;5006003;28;20060;-55
2022/07/20 04:49:01;;;;;;;8.30;4.90;;;28.70;75.90;;;;;;4986412;28;20058;-51
2022/07/20 04:51:28;;;;;;;9.25;4.90;;;29.10;76.30;;;;;;5006050;28;20524;-50
2022/07/20 04:53:54;;;;;;;6.90;5.53;;;29.50;74.20;;;;;;5005825;28;20046;-50
2022/07/20 04:56:20;;;;;;;6.15;4.63;;;29.90;74.40;;;;;;4985073;28;20109;-51
2022/07/20 04:58:52;;;;;;;7.53;5.15;;;30.20;72.90;;;;;;5002229;28;20128;-50
2022/07/20 05:01:22;;;;;;;;;;;30.60;72.20;;;;;;5007018;28;20056;-57
2022/07/20 05:03:49;;;;;;;10.35;5.30;;;30.90;71.00;;;;;;5005316;28;19929;-49
2022/07/20 05:06:24;;;;;;;12.65;4.80;;;31.20;71.40;;;;;;5001780;28;20409;-54
2022/07/20 05:08:53;;;;;;;11.45;5.20;;;31.70;70.00;;;;;;4995179;28;20058;-55
2022/07/20 05:11:19;;;;;;;9.00;5.20;;;31.90;70.90;;;;;;4999444;28;20053;-53
2022/07/20 05:13:46;;;;;;;7.18;5.13;;;32.30;70.40;;;;;;5018261;28;20053;-52
2022/07/20 05:16:12;;;;;;;7.03;4.45;;;32.70;70.10;;;;;;5025243;28;20129;-55
2022/07/20 05:18:38;;;;;;;10.30;5.28;;;33.00;70.30;;;;;;5025372;28;20095;-54
2022/07/20 05:21:05;;;;;;;9.15;5.40;;;33.00;69.10;;;;;;5025346;28;20480;-51
2022/07/20 05:23:31;;;;;;;9.77;5.03;;;33.40;69.00;;;;;;5007719;28;20049;-50
2022/07/20 05:25:59;;;;;;;10.05;4.82;;;33.70;68.60;;;;;;5025038;28;20400;-49
2022/07/20 05:28:25;;;;;;;7.22;4.50;;;33.90;68.30;;;;;;5032679;28;20061;-53
2022/07/20 05:30:51;;;;;;;7.65;4.97;;;34.20;68.00;;;;;;5033105;28;20049;-50
2022/07/20 05:33:18;;;;;;;5.72;5.10;;;34.50;68.00;;;;;;5036541;28;20049;-53
2022/07/20 05:35:44;;;;;;;8.07;5.18;;;34.80;66.90;;;;;;5025305;28;20045;-53
2022/07/20 05:38:11;;;;;;;8.52;5.30;;;35.20;67.10;;;;;;5025182;28;20068;-52
2022/07/20 05:40:37;;;;;;;9.00;4.78;;;35.40;66.80;;;;;;5025377;28;20049;-55
2022/07/20 05:43:08;;;;;;;7.22;4.95;;;35.60;66.70;;;;;;5024674;28;20986;-52
2022/07/20 05:45:35;;;;;;;7.10;5.00;;;35.90;66.00;;;;;;5024938;28;20504;-51
2022/07/20 05:48:01;;;;;;;6.25;5.10;;;35.90;66.40;;;;;;5003869;28;20057;-52
2022/07/20 05:50:27;;;;;;;7.68;5.53;;;36.10;66.30;;;;;;5019121;28;20548;-52
2022/07/20 05:52:53;;;;;;;7.32;4.80;;;36.20;66.30;;;;;;5024997;28;20049;-51
2022/07/20 05:55:19;;;;;;;10.07;5.57;;;36.20;66.20;;;;;;5025298;28;20060;-55
2022/07/20 05:57:45;;;;;;;6.57;5.40;;;36.40;66.20;;;;;;5007907;28;20052;-52
2022/07/20 06:00:12;;;;;;;6.35;5.60;;;36.70;66.30;;;;;;5002895;28;20042;-51
2022/07/20 06:02:39;;;;;;;7.60;5.75;;;36.80;65.80;;;;;;5018970;28;20515;-51
2022/07/20 06:05:06;;;;;;;11.25;5.43;;;36.90;65.50;;;;;;5006644;28;20096;-53
2022/07/20 06:07:32;;;;;;;10.02;5.82;;;37.10;65.60;;;;;;5024600;28;20046;-54
2022/07/20 06:09:58;;;;;;;8.75;6.35;;;37.30;65.50;;;;;;5013333;28;20468;-52
2022/07/20 06:12:24;;;;;;;10.13;5.45;;;37.50;64.80;;;;;;5026640;28;20056;-53
2022/07/20 06:14:50;;;;;;;7.72;6.05;;;37.80;64.90;;;;;;5005211;28;20092;-52
2022/07/20 06:17:16;;;;;;;10.70;5.40;;;37.90;64.30;;;;;;5006214;28;20144;-52
2022/07/20 06:19:42;;;;;;;10.15;6.55;;;38.20;64.90;;;;;;5033477;28;20037;-51
2022/07/20 06:22:09;;;;;;;9.95;7.22;;;38.10;64.50;;;;;;5024732;28;20048;-54
2022/07/20 06:24:35;;;;;;;13.85;7.88;;;38.40;64.60;;;;;;5048015;28;20553;-53
2022/07/20 06:27:01;;;;;;;12.35;8.10;;;38.60;65.00;;;;;;5048628;28;20127;-54
2022/07/20 06:29:27;;;;;;;11.40;7.13;;;38.60;65.50;;;;;;5047827;28;20472;-51
2022/07/20 06:31:53;;;;;;;12.52;7.93;;;39.00;65.60;;;;;;5018661;28;20049;-53
2022/07/20 06:34:19;;;;;;;14.38;7.50;;;39.10;65.00;;;;;;5048035;28;20126;-53
2022/07/20 06:36:46;;;;;;;11.10;8.35;;;38.90;64.70;;;;;;5049134;28;20063;-52
2022/07/20 06:39:13;;;;;;;10.38;7.72;;;39.20;65.10;;;;;;5048255;28;20491;-53
2022/07/20 06:41:39;;;;;;;13.68;8.40;;;39.30;65.10;;;;;;5029510;28;20065;-53
2022/07/20 06:44:05;;;;;;;11.38;8.35;;;39.20;65.40;;;;;;5048140;28;20053;-52
2022/07/20 06:46:31;;;;;;;12.00;9.10;;;39.00;65.60;;;;;;5048384;28;20055;-53
2022/07/20 06:48:57;;;;;;;13.98;9.30;;;38.90;66.20;;;;;;5047257;28;20094;-52
2022/07/20 06:51:24;;;;;;;12.10;9.40;;;39.00;66.90;;;;;;5018148;28;20049;-55
2022/07/20 06:53:50;;;;;;;14.40;11.50;;;38.80;67.60;;;;;;5015054;28;20057;-53
2022/07/20 06:56:17;;;;;;;17.75;12.57;;;38.80;67.70;;;;;;5024244;28;20131;-54
2022/07/20 06:58:43;;;;;;;20.90;12.88;;;38.70;68.30;;;;;;5018157;28;20058;-54
2022/07/20 07:01:09;;;;;;;22.75;13.98;;;39.00;69.00;;;;;;5027615;28;20057;-51
2022/07/20 07:03:36;;;;;;;17.08;15.05;;;38.70;68.90;;;;;;5027528;28;20179;-49
2022/07/20 07:06:02;;;;;;;26.77;17.63;;;38.70;69.20;;;;;;5026709;28;20061;-52
2022/07/20 07:08:28;;;;;;;23.63;15.73;;;38.90;69.80;;;;;;5030020;28;20191;-53
2022/07/20 07:10:54;;;;;;;26.17;15.27;;;38.90;69.70;;;;;;5029623;28;20059;-54
2022/07/20 07:13:20;;;;;;;20.67;15.27;;;38.70;70.00;;;;;;5026054;28;20054;-53
2022/07/20 07:15:46;;;;;;;22.27;16.10;;;38.90;70.20;;;;;;5047694;28;20045;-51
2022/07/20 07:18:12;;;;;;;22.75;18.13;;;38.90;70.10;;;;;;5048185;28;20407;-53
2022/07/20 07:20:38;;;;;;;23.20;17.52;;;38.70;71.60;;;;;;5047800;28;20085;-53
2022/07/20 07:23:04;;;;;;;23.13;19.92;;;38.70;71.30;;;;;;5026065;28;20080;-52
2022/07/20 07:25:30;;;;;;;22.13;19.17;;;38.00;72.40;;;;;;5038998;28;20060;-54
2022/07/20 07:27:56;;;;;;;29.02;20.58;;;37.30;73.40;;;;;;5029316;28;20080;-51
2022/07/20 07:30:22;;;;;;;23.98;21.60;;;36.50;74.60;;;;;;5018699;28;20080;-56
2022/07/20 07:32:48;;;;;;;26.83;22.20;;;35.80;75.50;;;;;;5041335;28;20531;-52
2022/07/20 07:35:15;;;;;;;25.23;22.48;;;35.40;76.30;;;;;;5047367;28;20045;-54
2022/07/20 07:37:41;;;;;;;28.55;24.52;;;35.10;77.20;;;;;;5046661;28;20071;-50
2022/07/20 07:40:08;;;;;;;31.90;23.35;;;34.90;77.70;;;;;;5028734;28;20055;-51
2022/07/20 07:42:34;;;;;;;29.42;24.00;;;34.60;78.00;;;;;;5046363;28;20526;-50
2022/07/20 07:45:04;;;;;;;27.13;23.50;;;34.30;78.50;;;;;;5046664;28;20044;-53
2022/07/20 07:47:31;;;;;;;32.28;25.48;;;34.40;79.10;;;;;;5046326;28;20492;-52
2022/07/20 07:49:57;;;;;;;31.52;24.95;;;34.30;79.80;;;;;;5002350;28;20488;-51
2022/07/20 07:52:23;;;;;;;28.67;25.60;;;34.10;80.00;;;;;;5004212;28;20108;-52
2022/07/20 07:54:48;;;;;;;29.33;26.15;;;33.80;80.00;;;;;;5025804;28;20053;-52
2022/07/20 07:57:15;;;;;;;28.83;25.85;;;33.80;80.80;;;;;;5004974;28;20049;-49
2022/07/20 07:59:42;;;;;;;29.30;25.90;;;33.50;81.10;;;;;;5009099;28;20814;-48
2022/07/20 08:02:08;;;;;;;28.98;25.63;;;33.30;81.00;;;;;;5025709;28;20050;-53
2022/07/20 08:04:35;;;;;;;29.67;26.48;;;33.30;81.80;;;;;;5025373;28;20625;-49
2022/07/20 08:07:07;;;;;;;28.75;25.58;;;33.20;82.40;;;;;;4991941;28;20076;-52
2022/07/20 08:09:33;;;;;;;29.60;26.42;;;33.20;82.20;;;;;;5005872;28;20173;-52
2022/07/20 08:11:59;;;;;;;29.92;26.50;;;33.00;82.70;;;;;;5009913;28;20097;-54
2022/07/20 08:14:26;;;;;;;31.33;26.83;;;32.90;83.30;;;;;;5032931;28;20053;-50
2022/07/20 08:16:52;;;;;;;30.52;26.63;;;33.10;83.60;;;;;;5024434;28;20056;-53
2022/07/20 08:19:19;;;;;;;32.67;29.15;;;33.00;83.00;;;;;;5026635;28;20057;-49
2022/07/20 08:21:45;;;;;;;33.88;28.33;;;32.90;83.00;;;;;;5026238;28;20049;-53
2022/07/20 08:24:14;;;;;;;30.52;27.38;;;32.80;83.00;;;;;;5004883;28;20647;-50
2022/07/20 08:26:43;;;;;;;;;;;32.90;83.70;;;;;;5013312;28;20049;-54
2022/07/20 08:29:09;;;;;;;29.92;26.80;;;32.80;84.10;;;;;;5026930;28;20337;-50
2022/07/20 08:31:36;;;;;;;33.83;28.23;;;32.60;84.00;;;;;;5026708;28;20798;-52
2022/07/20 08:34:02;;;;;;;35.75;28.08;;;32.60;84.20;;;;;;5025739;28;20111;-52
2022/07/20 08:36:28;;;;;;;30.95;27.75;;;32.60;84.60;;;;;;5025976;28;20132;-50
2022/07/20 08:38:54;;;;;;;33.97;29.02;;;32.50;85.60;;;;;;5026167;28;20077;-49
2022/07/20 08:41:22;;;;;;;32.80;28.73;;;32.30;84.50;;;;;;5025457;28;20115;-52
2022/07/20 08:43:48;;;;;;;32.83;29.27;;;32.10;84.40;;;;;;5025496;28;20084;-50
2022/07/20 08:46:14;;;;;;;37.58;29.92;;;31.90;84.40;;;;;;5025131;28;20488;-51
2022/07/20 08:48:41;;;;;;;35.88;27.30;;;31.80;84.70;;;;;;5025692;28;20053;-50
2022/07/20 08:51:08;;;;;;;31.35;28.08;;;31.80;85.20;;;;;;5025727;28;20576;-52
2022/07/20 08:53:34;;;;;;;33.33;27.42;;;31.90;84.50;;;;;;5025381;28;20057;-50
2022/07/20 08:56:00;;;;;;;32.40;26.00;;;31.70;84.70;;;;;;5025326;28;20079;-49
2022/07/20 08:58:26;;;;;;;32.85;26.85;;;31.80;84.20;;;;;;5005099;28;20123;-51
2022/07/20 09:00:52;;;;;;;30.02;26.20;;;31.80;84.40;;;;;;5027332;28;20052;-51
2022/07/20 09:03:19;;;;;;;32.92;26.90;;;31.90;84.40;;;;;;5003776;28;20060;-49
2022/07/20 09:05:45;;;;;;;29.38;23.95;;;31.80;82.80;;;;;;5007122;28;20135;-53
2022/07/20 09:08:17;;;;;;;26.90;24.13;;;31.80;82.90;;;;;;5025502;28;20053;-56
2022/07/20 09:10:46;;;;;;;27.48;24.55;;;31.60;82.50;;;;;;5023416;28;20092;-52
2022/07/20 09:13:21;;;;;;;28.45;24.13;;;31.60;82.30;;;;;;5025751;28;20057;-52
2022/07/20 09:15:52;;;;;;;32.70;23.77;;;31.70;83.50;;;;;;5025821;28;20045;-52
2022/07/20 09:18:30;;;;;;;27.55;23.92;;;31.60;82.90;;;;;;5024808;28;20416;-53
2022/07/20 09:20:58;;;;;;;29.30;24.70;;;31.60;83.20;;;;;;5004588;28;20081;-52
2022/07/20 09:23:33;;;;;;;30.40;24.45;;;31.70;85.20;;;;;;5023974;28;20659;-55
2022/07/20 09:26:11;;;;;;;31.85;22.67;;;31.70;85.60;;;;;;5025447;28;20056;-54
2022/07/20 09:28:54;;;;;;;22.90;20.45;;;31.80;83.80;;;;;;5004025;28;20136;-53
2022/07/20 09:31:22;;;;;;;26.15;20.55;;;31.80;83.80;;;;;;5029255;28;20088;-54
2022/07/20 09:33:53;;;;;;;26.80;19.60;;;31.60;80.80;;;;;;5006786;28;20061;-53
2022/07/20 09:36:21;;;;;;;21.50;18.43;;;31.70;83.30;;;;;;5007520;28;20057;-55
2022/07/20 09:38:48;;;;;;;21.08;18.15;;;31.80;84.40;;;;;;5025283;28;20045;-54
2022/07/20 09:41:24;;;;;;;24.73;19.10;;;31.80;83.70;;;;;;5024673;28;20064;-53
2022/07/20 09:43:51;;;;;;;22.25;16.92;;;31.80;83.80;;;;;;5025613;28;20049;-53
2022/07/20 09:46:23;;;;;;;20.95;16.02;;;31.80;82.60;;;;;;5036955;28;20088;-52
2022/07/20 09:48:53;;;;;;;;;;;31.70;82.20;;;;;;5010082;28;20058;-53
2022/07/20 09:51:34;;;;;;;27.02;17.38;;;31.70;81.50;;;;;;5023692;28;19936;-51
2022/07/20 09:54:05;;;;;;;21.40;15.45;;;31.70;81.30;;;;;;5024900;28;20049;-52
2022/07/20 09:56:34;;;;;;;21.83;14.77;;;31.80;82.10;;;;;;5022103;28;20049;-52
2022/07/20 09:59:04;;;;;;;17.40;13.52;;;31.90;82.40;;;;;;5020691;28;20047;-51
2022/07/20 10:01:33;;;;;;;37.05;18.17;;;31.90;81.40;;;;;;5002744;28;20504;-51
2022/07/20 10:04:02;;;;;;;21.52;15.23;;;32.00;82.20;;;;;;5004608;28;20053;-51
2022/07/20 10:06:29;;;;;;;41.33;15.27;;;32.00;81.10;;;;;;5002966;28;20057;-50
2022/07/20 10:08:56;;;;;;;21.20;14.13;;;31.90;80.80;;;;;;5029056;28;20052;-52
2022/07/20 10:11:26;;;;;;;17.70;14.27;;;31.90;80.90;;;;;;5044266;28;20068;-54
2022/07/20 10:13:55;;;;;;;17.90;12.80;;;31.90;79.50;;;;;;5043996;28;20064;-52
2022/07/20 10:16:24;;;;;;;14.13;12.63;;;31.90;80.40;;;;;;5044688;28;20412;-55
2022/07/20 10:18:51;;;;;;;15.77;12.93;;;31.90;79.00;;;;;;5026028;28;20053;-49
2022/07/20 10:21:49;;;;;;;15.20;13.52;;;31.70;78.50;;;;;;5025829;28;20052;-52
2022/07/20 10:24:22;;;;;;;14.77;13.27;;;31.70;79.80;;;;;;5043409;28;20049;-51
2022/07/20 10:26:52;;;;;;;14.80;13.25;;;31.90;80.70;;;;;;5044350;28;20144;-53
2022/07/20 10:29:37;;;;;;;18.13;13.00;;;32.00;80.80;;;;;;5043459;28;20068;-53
2022/07/20 10:32:09;;;;;;;16.88;14.00;;;32.00;80.00;;;;;;5033106;28;20049;-53
2022/07/20 10:34:39;;;;;;;16.55;14.07;;;32.00;77.40;;;;;;5026166;28;20699;-52
2022/07/20 10:37:25;;;;;;;16.63;13.88;;;31.90;77.50;;;;;;5014755;28;20053;-52
2022/07/20 10:39:52;;;;;;;18.00;14.02;;;31.90;76.60;;;;;;5023471;28;20051;-52
2022/07/20 10:42:34;;;;;;;16.70;13.88;;;31.90;76.40;;;;;;5024092;28;20115;-53
2022/07/20 10:45:19;;;;;;;19.25;13.45;;;31.80;77.50;;;;;;5006372;28;20057;-52
2022/07/20 10:48:19;;;;;;;15.00;13.20;;;31.80;77.10;;;;;;5006507;28;20061;-52
2022/07/20 10:50:51;;;;;;;16.17;12.65;;;31.70;77.80;;;;;;4924314;29;20059;-48
2022/07/20 10:53:26;;;;;;;14.93;12.38;;;31.80;77.20;;;;;;4908492;29;20072;-52
2022/07/20 10:55:58;;;;;;;15.20;12.52;;;31.70;76.80;;;;;;4928390;29;20078;-51
2022/07/20 10:58:29;;;;;;;;;;;31.70;79.10;;;;;;4918514;29;20111;-50
2022/07/20 11:01:20;;;;;;;16.48;12.82;;;31.80;78.50;;;;;;4920219;29;20350;-50
2022/07/20 11:03:50;;;;;;;14.15;11.48;;;31.90;78.60;;;;;;4921356;29;20104;-52
2022/07/20 11:06:19;;;;;;;12.52;10.75;;;32.00;78.40;;;;;;4925163;29;20141;-52
2022/07/20 11:08:53;;;;;;;14.75;10.88;;;32.10;78.70;;;;;;4942005;29;20067;-49
2022/07/20 11:11:32;;;;;;;11.90;10.40;;;32.10;76.20;;;;;;4927413;29;20066;-52
2022/07/20 11:13:58;;;;;;;13.70;11.02;;;32.10;78.50;;;;;;4943446;29;20125;-42
2022/07/20 11:16:27;;;;;;;13.63;10.57;;;32.10;76.70;;;;;;4930641;29;20074;-49
2022/07/20 11:18:55;;;;;;;25.25;12.63;;;32.00;74.90;;;;;;4946769;29;20054;-50
2022/07/20 11:21:38;;;;;;;15.80;11.77;;;31.90;76.60;;;;;;4929403;29;20094;-58
2022/07/20 11:24:23;;;;;;;11.65;10.23;;;32.00;78.10;;;;;;4909311;29;20063;-53
2022/07/20 11:26:49;;;;;;;23.15;12.02;;;31.90;79.00;;;;;;4964254;28;20164;-54
2022/07/20 11:29:16;;;;;;;14.60;10.98;;;31.70;78.50;;;;;;5031720;28;20825;-52
2022/07/20 11:31:43;;;;;;;17.52;11.07;;;31.70;79.50;;;;;;4997804;28;20056;-50
2022/07/20 11:34:12;;;;;;;13.48;11.30;;;31.70;79.20;;;;;;5027432;28;20080;-54
2022/07/20 11:36:39;;;;;;;16.63;11.65;;;31.70;79.00;;;;;;5009124;28;20062;-48
2022/07/20 11:39:10;;;;;;;15.35;11.25;;;31.70;79.70;;;;;;5009740;28;20127;-52
2022/07/20 11:41:39;;;;;;;14.52;11.85;;;31.70;78.90;;;;;;5027043;28;20053;-53
2022/07/20 11:44:14;;;;;;;16.02;11.85;;;31.70;78.70;;;;;;4994715;28;20052;-52
2022/07/20 11:46:42;;;;;;;13.18;10.60;;;31.70;79.30;;;;;;4991474;28;20554;-52
2022/07/20 11:49:14;;;;;;;14.00;11.18;;;31.60;79.30;;;;;;5026919;28;20642;-51
2022/07/20 11:51:43;;;;;;;12.52;10.90;;;31.40;79.30;;;;;;5027040;28;20204;-46
2022/07/20 11:54:10;;;;;;;13.52;11.65;;;31.60;79.60;;;;;;5026496;28;20060;-54
2022/07/20 11:56:37;;;;;;;13.07;11.43;;;31.70;79.90;;;;;;5026466;28;20057;-50
2022/07/20 11:59:06;;;;;;;13.57;10.88;;;31.90;79.90;;;;;;4961559;28;20061;-52
2022/07/20 12:01:36;;;;;;;14.10;11.18;;;31.90;80.50;;;;;;5013928;28;20041;-48
2022/07/20 12:04:12;;;;;;;13.10;11.32;;;31.90;79.80;;;;;;5000310;28;20050;-50
2022/07/20 12:06:41;;;;;;;15.80;10.82;;;31.70;80.10;;;;;;5006960;28;20062;-50
2022/07/20 12:09:10;;;;;;;14.32;11.70;;;31.70;80.30;;;;;;4985034;28;20493;-54
2022/07/20 12:11:58;;;;;;;15.90;12.48;;;31.70;81.60;;;;;;5001560;28;20142;-51
2022/07/20 12:14:33;;;;;;;14.02;11.40;;;31.60;82.30;;;;;;4990216;28;20076;-54
2022/07/20 12:17:21;;;;;;;14.95;12.10;;;31.40;81.20;;;;;;5006855;28;20156;-53
2022/07/20 12:19:51;;;;;;;12.60;10.93;;;31.40;82.60;;;;;;4987044;28;20062;-51
2022/07/20 12:22:35;;;;;;;11.52;10.32;;;31.40;82.00;;;;;;4985557;28;20481;-50
2022/07/20 12:25:06;;;;;;;12.85;11.25;;;31.30;80.80;;;;;;4986969;28;20049;-51
2022/07/20 12:27:36;;;;;;;12.30;11.00;;;31.40;80.70;;;;;;5007235;28;20054;-49
2022/07/20 12:30:26;;;;;;;15.95;11.85;;;31.30;81.90;;;;;;5023686;28;20160;-54
2022/07/20 12:33:11;;;;;;;14.18;10.52;;;31.30;81.50;;;;;;5039803;28;20510;-49
2022/07/20 12:35:56;;;;;;;14.27;10.80;;;31.30;81.50;;;;;;4982773;28;20404;-53
2022/07/20 12:38:33;;;;;;;11.45;10.27;;;31.10;80.10;;;;;;4994511;28;20519;-54
2022/07/20 12:41:13;;;;;;;15.77;11.50;;;31.00;80.10;;;;;;5011748;28;20091;-52
2022/07/20 12:43:41;;;;;;;11.05;9.88;;;30.90;80.40;;;;;;5017241;28;20099;-53
2022/07/20 12:46:15;;;;;;;14.05;10.63;;;31.00;81.90;;;;;;4997657;28;20104;-51
2022/07/20 12:48:44;;;;;;;11.68;10.23;;;31.00;80.80;;;;;;4992970;28;20054;-54